KLCK/LCK METAR and TAF weather

Enter ICAO airport designator
Station Type Date Time Source
KLCK METAR 2019/10/18 11:35 UTC NOAA

KLCK 181135Z AUTO 00000KT 10SM CLR 00/00 A3008 RMK AO2 T00010000


Station Type Date Time Source
KLCK Decoded METAR 2019/10/18 11:35 UTC NOAA

Rickenbacker Air National Guard Base, OH, United States (KLCK) 39-49N 082-56W
Oct 18, 2019 - 07:35 AM EDT / 2019.10.18 1135 UTC
Wind: Calm:0
Visibility: 10 mile(s):0
Sky conditions: clear
Temperature: 32.2 F (0.1 C)
Dew Point: 32.0 F (0.0 C)
Relative Humidity: 99%
Pressure (altimeter): 30.08 in. Hg (1018 hPa)
ob: KLCK 181135Z AUTO 00000KT 10SM CLR 00/00 A3008 RMK AO2 T00010000
cycle: 11

Station Type Date Time Source
KLCK TAF 2019/10/18 12:33 UTC NOAA

TAF KLCK 181131Z 1812/1912 33004KT P6SM SKC
FM181500 VRB03KT P6SM SCT250
FM181800 VRB03KT P6SM SCT250
FM190200 11003KT P6SM SKC

Example: see airport list